createdAt,value
2018-04-16T00:00:20.779Z,22.13
2018-04-16T00:00:52.383Z,22.14
2018-04-16T00:01:23.967Z,22.14
2018-04-16T00:01:55.617Z,22.14
2018-04-16T00:02:27.232Z,22.15
2018-04-16T00:02:58.828Z,22.16
2018-04-16T00:03:30.437Z,22.15
2018-04-16T00:04:02.070Z,22.16
2018-04-16T00:04:33.659Z,22.16
2018-04-16T00:05:05.270Z,22.16
2018-04-16T00:05:36.891Z,22.15
2018-04-16T00:06:08.500Z,22.17
2018-04-16T00:06:40.106Z,22.16
2018-04-16T00:07:11.735Z,22.16
2018-04-16T00:07:43.322Z,22.14
2018-04-16T00:08:14.922Z,22.13
2018-04-16T00:08:46.517Z,22.15
2018-04-16T00:09:18.147Z,22.14
2018-04-16T00:09:49.730Z,22.13
2018-04-16T00:10:21.334Z,22.12
2018-04-16T00:10:52.933Z,22.11
2018-04-16T00:11:24.551Z,22.11
2018-04-16T00:11:56.163Z,22.10
2018-04-16T00:12:27.766Z,22.10
2018-04-16T00:12:59.360Z,22.10
2018-04-16T00:13:30.984Z,22.08
2018-04-16T00:14:02.592Z,22.09
2018-04-16T00:14:34.182Z,22.06
2018-04-16T00:15:05.795Z,22.08
2018-04-16T00:15:37.419Z,22.07
2018-04-16T00:16:09.028Z,22.07
2018-04-16T00:16:40.618Z,22.06
2018-04-16T00:17:12.193Z,22.05
2018-04-16T00:17:43.831Z,22.05
2018-04-16T00:18:15.431Z,22.04
2018-04-16T00:18:47.022Z,22.04
2018-04-16T00:19:18.679Z,22.05
2018-04-16T00:19:50.278Z,22.05
2018-04-16T00:20:21.864Z,22.04
2018-04-16T00:20:53.453Z,22.04
2018-04-16T00:21:25.054Z,22.04
2018-04-16T00:21:56.655Z,22.03
2018-04-16T00:22:28.390Z,22.03
2018-04-16T00:22:59.998Z,22.03
2018-04-16T00:23:31.653Z,22.03
2018-04-16T00:24:03.248Z,22.02
2018-04-16T00:24:34.890Z,22.02
2018-04-16T00:25:06.485Z,22.01
2018-04-16T00:25:38.106Z,22.02
2018-04-16T00:26:09.681Z,22.02
2018-04-16T00:26:41.303Z,22.02
2018-04-16T00:27:12.892Z,22.03
2018-04-16T00:27:44.481Z,22.02
2018-04-16T00:28:16.097Z,22.01
2018-04-16T00:28:47.707Z,22.01
2018-04-16T00:29:19.325Z,21.91
2018-04-16T00:29:50.950Z,22.01
2018-04-16T00:30:22.567Z,22.02
2018-04-16T00:30:54.168Z,22.00
2018-04-16T00:31:31.459Z,21.99
2018-04-16T00:32:08.735Z,22.00
2018-04-16T00:32:46.086Z,22.00
2018-04-16T00:33:23.317Z,21.99
2018-04-16T00:34:00.585Z,21.99
2018-04-16T00:34:37.827Z,21.98
2018-04-16T00:35:15.057Z,21.98
2018-04-16T00:35:52.346Z,21.98
2018-04-16T00:36:29.685Z,21.98
2018-04-16T00:37:07.001Z,21.97
2018-04-16T00:37:44.287Z,21.98
2018-04-16T00:38:21.553Z,21.97
2018-04-16T00:38:58.881Z,21.97
2018-04-16T00:39:36.110Z,21.97
2018-04-16T00:40:13.534Z,21.97
2018-04-16T00:40:50.831Z,21.96
2018-04-16T00:41:28.082Z,21.96
2018-04-16T00:42:05.388Z,21.96
2018-04-16T00:42:42.655Z,21.95
2018-04-16T00:43:19.922Z,21.96
2018-04-16T00:43:57.223Z,21.96
2018-04-16T00:44:34.546Z,21.95
2018-04-16T00:45:11.740Z,21.95
2018-04-16T00:45:49.018Z,21.95
2018-04-16T00:46:26.390Z,21.94
2018-04-16T00:47:03.767Z,21.94
2018-04-16T00:47:40.977Z,21.94
2018-04-16T00:48:18.211Z,21.95
2018-04-16T00:48:55.625Z,21.96
2018-04-16T00:49:33.058Z,21.94
2018-04-16T00:50:10.331Z,21.95
2018-04-16T00:50:47.661Z,21.95
2018-04-16T00:51:24.998Z,21.94
2018-04-16T00:52:02.217Z,21.94
2018-04-16T00:52:39.605Z,21.95
2018-04-16T00:53:16.915Z,21.94
2018-04-16T00:53:54.197Z,21.95
2018-04-16T00:54:31.443Z,21.94
2018-04-16T00:55:08.791Z,21.96
2018-04-16T00:55:46.032Z,21.96
2018-04-16T00:56:23.387Z,21.98
2018-04-16T00:57:00.636Z,22.00
2018-04-16T00:57:38.031Z,22.02
2018-04-16T00:58:15.346Z,22.04
2018-04-16T00:58:52.637Z,22.04
2018-04-16T00:59:29.946Z,22.05
2018-04-16T01:00:07.170Z,22.05
2018-04-16T01:00:44.445Z,22.05
2018-04-16T01:01:21.770Z,22.06
2018-04-16T01:01:59.188Z,22.06
2018-04-16T01:02:36.447Z,22.05
2018-04-16T01:03:13.748Z,22.06
2018-04-16T01:03:51.063Z,22.04
2018-04-16T01:04:28.287Z,22.03
2018-04-16T01:05:05.607Z,22.05
2018-04-16T01:05:43.059Z,22.04
2018-04-16T01:06:20.535Z,22.04
2018-04-16T01:06:57.855Z,22.05
2018-04-16T01:07:35.133Z,22.05
2018-04-16T01:08:12.396Z,22.06
2018-04-16T01:08:49.698Z,22.04
2018-04-16T01:09:27.023Z,22.05
2018-04-16T01:10:04.218Z,22.04
2018-04-16T01:10:41.514Z,22.05
2018-04-16T01:11:18.792Z,22.03
2018-04-16T01:11:56.167Z,22.05
2018-04-16T01:12:33.462Z,22.05
2018-04-16T01:13:10.863Z,22.06
2018-04-16T01:14:03.254Z,22.05
2018-04-16T01:14:40.507Z,22.04
2018-04-16T01:15:17.793Z,22.02
2018-04-16T01:16:04.326Z,22.02
2018-04-16T01:16:41.703Z,22.03
2018-04-16T01:17:19.109Z,22.03
2018-04-16T01:18:08.445Z,22.04
2018-04-16T01:18:45.876Z,22.03
2018-04-16T01:19:33.258Z,22.02
2018-04-16T01:20:10.495Z,22.01
2018-04-16T01:20:47.796Z,22.01
2018-04-16T01:21:25.145Z,22.02
2018-04-16T01:22:02.487Z,22.02
2018-04-16T01:22:39.735Z,22.00
2018-04-16T01:23:17.146Z,21.98
2018-04-16T01:23:54.383Z,21.98
2018-04-16T01:24:31.827Z,21.96
2018-04-16T01:25:09.074Z,21.99
2018-04-16T01:25:46.289Z,22.00
2018-04-16T01:26:23.623Z,22.00
2018-04-16T01:27:00.950Z,22.01
2018-04-16T01:27:38.219Z,22.00
2018-04-16T01:28:15.730Z,22.01
2018-04-16T01:28:53.053Z,21.94
2018-04-16T01:29:30.390Z,22.01
2018-04-16T01:30:07.687Z,22.01
2018-04-16T01:30:45.039Z,22.02
2018-04-16T01:31:22.335Z,22.02
2018-04-16T01:31:59.683Z,22.01
2018-04-16T01:32:37.030Z,22.01
2018-04-16T01:33:14.471Z,22.02
2018-04-16T01:33:51.689Z,22.03
2018-04-16T01:34:29.003Z,22.02
2018-04-16T01:35:06.255Z,22.01
2018-04-16T01:35:43.545Z,22.02
2018-04-16T01:36:20.851Z,22.02
2018-04-16T01:36:58.118Z,22.02
2018-04-16T01:37:35.364Z,22.04
2018-04-16T01:38:12.651Z,22.03
2018-04-16T01:38:49.957Z,22.01
2018-04-16T01:39:27.281Z,22.01
2018-04-16T01:40:04.535Z,22.02
2018-04-16T01:40:54.129Z,22.02
2018-04-16T01:41:31.464Z,22.02
2018-04-16T01:42:08.769Z,22.01
2018-04-16T01:42:46.052Z,22.04
2018-04-16T01:43:23.384Z,22.01
2018-04-16T01:44:00.666Z,22.00
2018-04-16T01:44:37.972Z,21.98
2018-04-16T01:45:15.338Z,21.98
2018-04-16T01:45:52.613Z,21.96
2018-04-16T01:46:29.977Z,21.97
2018-04-16T01:47:07.443Z,21.98
2018-04-16T01:47:44.658Z,21.97
2018-04-16T01:48:21.969Z,21.95
2018-04-16T01:48:59.249Z,21.96
2018-04-16T01:49:36.581Z,21.95
2018-04-16T01:50:14.115Z,21.95
2018-04-16T01:50:51.405Z,21.96
2018-04-16T01:51:28.751Z,21.97
2018-04-16T01:52:06.127Z,21.96
2018-04-16T01:52:43.451Z,21.96
2018-04-16T01:53:20.718Z,21.94
2018-04-16T01:53:57.977Z,21.97
2018-04-16T01:54:35.285Z,21.96
2018-04-16T01:55:12.609Z,21.95
2018-04-16T01:55:49.896Z,21.95
2018-04-16T01:56:27.234Z,21.95
2018-04-16T01:57:04.497Z,21.95
2018-04-16T01:57:41.758Z,21.94
2018-04-16T01:58:19.110Z,21.93
2018-04-16T01:58:56.365Z,21.94
2018-04-16T01:59:33.730Z,21.93
2018-04-16T02:00:10.941Z,21.93
2018-04-16T02:00:48.252Z,21.92
2018-04-16T02:01:25.494Z,21.92
2018-04-16T02:02:02.789Z,21.92
2018-04-16T02:02:53.115Z,21.92
2018-04-16T02:03:30.315Z,21.92
2018-04-16T02:04:07.615Z,21.91
2018-04-16T02:04:45.009Z,21.90
2018-04-16T02:05:22.386Z,21.90
2018-04-16T02:05:59.693Z,21.90
2018-04-16T02:06:37.005Z,21.90
2018-04-16T02:07:14.282Z,21.90
2018-04-16T02:07:51.667Z,21.89
2018-04-16T02:08:29.036Z,21.90
2018-04-16T02:09:06.383Z,21.89
2018-04-16T02:09:43.814Z,21.89
2018-04-16T02:10:21.161Z,21.89
2018-04-16T02:11:11.639Z,21.90
2018-04-16T02:11:48.964Z,21.90
2018-04-16T02:12:26.191Z,21.90
2018-04-16T02:13:03.577Z,21.91
2018-04-16T02:13:40.935Z,21.90
2018-04-16T02:14:18.277Z,21.90
2018-04-16T02:14:55.607Z,21.89
2018-04-16T02:15:45.041Z,21.90
2018-04-16T02:16:22.411Z,21.90
2018-04-16T02:16:59.702Z,21.93
2018-04-16T02:17:36.993Z,21.96
2018-04-16T02:18:14.266Z,21.98
2018-04-16T02:18:51.598Z,21.98
2018-04-16T02:19:28.971Z,21.97
2018-04-16T02:20:06.219Z,21.98
2018-04-16T02:20:43.548Z,21.98
2018-04-16T02:21:20.901Z,21.99
2018-04-16T02:21:58.202Z,21.98
2018-04-16T02:22:35.559Z,21.99
2018-04-16T02:23:12.958Z,22.00
2018-04-16T02:23:50.221Z,21.99
2018-04-16T02:24:27.465Z,21.99
2018-04-16T02:25:04.802Z,21.98
2018-04-16T02:25:42.146Z,21.98
2018-04-16T02:26:19.522Z,21.98
2018-04-16T02:26:56.951Z,21.98
2018-04-16T02:27:34.182Z,21.97
2018-04-16T02:28:11.419Z,21.96
2018-04-16T02:28:48.833Z,21.96
2018-04-16T02:29:26.206Z,21.96
2018-04-16T02:30:03.662Z,21.95
2018-04-16T02:30:40.913Z,21.93
2018-04-16T02:31:18.211Z,21.93
2018-04-16T02:31:55.674Z,21.92
2018-04-16T02:32:33.095Z,21.90
2018-04-16T02:33:10.362Z,21.89
2018-04-16T02:33:47.761Z,21.89
2018-04-16T02:34:25.104Z,21.88
2018-04-16T02:35:02.453Z,21.88
2018-04-16T02:35:39.737Z,21.89
2018-04-16T02:36:17.019Z,21.88
2018-04-16T02:36:54.384Z,21.88
2018-04-16T02:37:31.912Z,21.88
2018-04-16T02:38:09.239Z,21.88
2018-04-16T02:38:46.462Z,21.88
2018-04-16T02:39:23.787Z,21.87
2018-04-16T02:40:13.250Z,21.88
2018-04-16T02:41:03.626Z,21.87
2018-04-16T02:41:40.950Z,21.87
2018-04-16T02:42:18.276Z,21.87
2018-04-16T02:42:55.475Z,21.87
2018-04-16T02:43:32.764Z,21.85
2018-04-16T02:44:09.998Z,21.86
2018-04-16T02:44:47.432Z,21.86
2018-04-16T02:45:24.738Z,21.85
2018-04-16T02:46:01.967Z,21.84
2018-04-16T02:46:39.265Z,21.85
2018-04-16T02:47:16.569Z,21.84
2018-04-16T02:47:53.960Z,21.84
2018-04-16T02:48:31.259Z,21.83
2018-04-16T02:49:18.633Z,21.82
2018-04-16T02:49:55.895Z,21.84
2018-04-16T02:50:33.142Z,21.82
2018-04-16T02:51:10.426Z,21.82
2018-04-16T02:51:47.651Z,21.81
2018-04-16T02:52:24.989Z,21.84
2018-04-16T02:53:02.247Z,21.84
2018-04-16T02:53:39.595Z,21.83
2018-04-16T02:54:16.867Z,21.84
2018-04-16T02:54:54.067Z,21.84
2018-04-16T02:55:31.391Z,21.88
2018-04-16T02:56:08.715Z,21.89
2018-04-16T02:56:46.034Z,21.89
2018-04-16T02:57:23.407Z,21.93
2018-04-16T02:58:00.664Z,21.93
2018-04-16T02:58:37.884Z,21.94
2018-04-16T02:59:15.293Z,21.92
2018-04-16T02:59:52.627Z,21.93
2018-04-16T03:00:29.948Z,21.92
2018-04-16T03:01:07.234Z,21.93
2018-04-16T03:01:44.545Z,21.94
2018-04-16T03:02:22.013Z,21.97
2018-04-16T03:02:59.371Z,21.98
2018-04-16T03:03:36.654Z,21.97
2018-04-16T03:04:13.939Z,22.00
2018-04-16T03:04:51.462Z,22.01
2018-04-16T03:05:28.783Z,22.02
2018-04-16T03:06:06.031Z,22.02
2018-04-16T03:06:43.229Z,22.06
2018-04-16T03:07:20.735Z,22.07
2018-04-16T03:07:58.143Z,22.10
2018-04-16T03:08:35.365Z,22.13
2018-04-16T03:09:12.651Z,22.13
2018-04-16T03:09:53.915Z,22.14
2018-04-16T03:10:31.269Z,22.15
2018-04-16T03:11:08.569Z,22.16
2018-04-16T03:11:59.096Z,22.17
2018-04-16T03:12:36.391Z,22.18
2018-04-16T03:13:13.615Z,22.20
2018-04-16T03:13:50.925Z,22.19
2018-04-16T03:14:28.207Z,22.19
2018-04-16T03:15:05.430Z,22.18
2018-04-16T03:15:42.708Z,22.19
2018-04-16T03:16:20.018Z,22.18
2018-04-16T03:16:57.258Z,22.19
2018-04-16T03:17:45.695Z,22.16
2018-04-16T03:18:22.963Z,22.15
2018-04-16T03:19:00.271Z,22.14
2018-04-16T03:19:37.738Z,22.13
2018-04-16T03:20:15.275Z,22.12
2018-04-16T03:20:52.558Z,22.12
2018-04-16T03:21:29.932Z,22.10
2018-04-16T03:22:07.386Z,22.11
2018-04-16T03:22:44.727Z,22.12
2018-04-16T03:23:36.120Z,22.12
2018-04-16T03:24:13.458Z,22.13
2018-04-16T03:24:50.780Z,22.12
2018-04-16T03:25:28.089Z,22.12
2018-04-16T03:26:05.441Z,22.11
2018-04-16T03:26:42.875Z,22.11
2018-04-16T03:27:20.171Z,22.12
2018-04-16T03:27:57.413Z,22.12
2018-04-16T03:28:34.812Z,22.09
2018-04-16T03:29:22.167Z,22.08
2018-04-16T03:29:59.539Z,22.07
2018-04-16T03:30:36.936Z,22.04
2018-04-16T03:31:14.177Z,22.04
2018-04-16T03:31:51.503Z,22.02
2018-04-16T03:32:28.781Z,22.03
2018-04-16T03:33:06.179Z,22.04
2018-04-16T03:33:43.402Z,22.03
2018-04-16T03:34:20.751Z,22.03
2018-04-16T03:34:58.146Z,22.05
2018-04-16T03:35:35.570Z,22.07
2018-04-16T03:36:12.805Z,22.07
2018-04-16T03:36:50.091Z,22.06
2018-04-16T03:37:27.366Z,22.06
2018-04-16T03:38:04.667Z,22.07
2018-04-16T03:38:41.967Z,22.09
2018-04-16T03:39:19.401Z,22.10
2018-04-16T03:39:56.711Z,22.11
2018-04-16T03:40:34.030Z,22.11
2018-04-16T03:41:11.407Z,22.14
2018-04-16T03:41:48.799Z,22.13
2018-04-16T03:42:26.025Z,22.12
2018-04-16T03:43:03.251Z,22.12
2018-04-16T03:43:40.637Z,22.12
2018-04-16T03:44:18.089Z,22.11
2018-04-16T03:44:55.571Z,22.11
2018-04-16T03:45:32.858Z,22.13
2018-04-16T03:46:10.199Z,22.14
2018-04-16T03:46:47.605Z,22.14
2018-04-16T03:47:24.939Z,22.12
2018-04-16T03:48:02.135Z,22.11
2018-04-16T03:48:39.435Z,22.10
2018-04-16T03:49:16.778Z,22.09
2018-04-16T03:49:54.089Z,22.09
2018-04-16T03:50:31.527Z,22.08
2018-04-16T03:51:22.017Z,22.07
2018-04-16T03:51:59.489Z,22.09
2018-04-16T03:52:36.847Z,22.08
2018-04-16T03:53:14.081Z,22.08
2018-04-16T03:53:48.623Z,22.11
2018-04-16T03:54:20.238Z,22.12
2018-04-16T03:55:08.655Z,22.11
2018-04-16T03:55:45.952Z,22.11
2018-04-16T03:56:17.552Z,22.10
2018-04-16T03:56:49.167Z,22.09
2018-04-16T03:57:20.782Z,22.10
2018-04-16T03:57:52.395Z,22.08
2018-04-16T03:58:23.973Z,22.08
2018-04-16T03:58:55.575Z,22.07
2018-04-16T03:59:27.153Z,22.07
2018-04-16T03:59:58.764Z,22.09
2018-04-16T04:00:30.418Z,22.10
2018-04-16T04:01:02.007Z,22.09
2018-04-16T04:01:33.591Z,22.08
2018-04-16T04:02:05.198Z,22.09
2018-04-16T04:02:36.811Z,22.10
2018-04-16T04:03:08.403Z,22.09
2018-04-16T04:03:39.987Z,22.09
2018-04-16T04:04:11.565Z,22.09
2018-04-16T04:04:43.166Z,22.08
2018-04-16T04:05:14.778Z,22.08
2018-04-16T04:05:46.430Z,22.07
2018-04-16T04:06:18.022Z,22.07
2018-04-16T04:06:49.606Z,22.08
2018-04-16T04:07:21.185Z,22.06
2018-04-16T04:07:52.799Z,22.07
2018-04-16T04:08:24.411Z,22.07
2018-04-16T04:08:55.999Z,22.08
2018-04-16T04:09:27.588Z,22.08
2018-04-16T04:09:59.224Z,22.07
2018-04-16T04:10:30.805Z,22.08
2018-04-16T04:11:02.389Z,22.06
2018-04-16T04:11:33.973Z,22.06
2018-04-16T04:12:05.587Z,22.06
2018-04-16T04:12:37.223Z,22.06
2018-04-16T04:13:08.834Z,22.05
2018-04-16T04:13:40.437Z,22.06
2018-04-16T04:14:12.027Z,22.06
2018-04-16T04:14:43.611Z,21.99
2018-04-16T04:15:15.209Z,22.06
2018-04-16T04:15:46.846Z,22.06
2018-04-16T04:16:18.478Z,22.06
2018-04-16T04:16:50.115Z,22.05
2018-04-16T04:17:21.726Z,22.06
2018-04-16T04:17:53.325Z,22.05
2018-04-16T04:18:24.915Z,22.05
2018-04-16T04:18:56.527Z,22.04
2018-04-16T04:19:28.118Z,22.03
2018-04-16T04:19:59.693Z,22.03
2018-04-16T04:20:31.293Z,22.02
2018-04-16T04:21:02.906Z,22.01
2018-04-16T04:21:34.505Z,22.01
2018-04-16T04:22:06.175Z,21.99
2018-04-16T04:22:37.776Z,21.99
2018-04-16T04:23:09.387Z,21.98
2018-04-16T04:23:41.003Z,21.99
2018-04-16T04:24:12.591Z,22.02
2018-04-16T04:24:44.170Z,22.01
2018-04-16T04:25:15.772Z,22.01
2018-04-16T04:25:47.375Z,22.01
2018-04-16T04:26:18.962Z,22.01
2018-04-16T04:26:50.553Z,22.00
2018-04-16T04:27:22.203Z,22.01
2018-04-16T04:27:53.819Z,22.01
2018-04-16T04:28:25.409Z,21.96
2018-04-16T04:28:56.994Z,22.00
2018-04-16T04:29:28.613Z,22.03
2018-04-16T04:30:00.203Z,22.01
2018-04-16T04:30:31.790Z,22.01
2018-04-16T04:31:03.376Z,21.99
2018-04-16T04:31:34.986Z,21.99
2018-04-16T04:32:06.618Z,21.98
2018-04-16T04:32:38.193Z,21.98
2018-04-16T04:33:09.842Z,21.99
2018-04-16T04:33:41.455Z,21.98
2018-04-16T04:34:13.067Z,21.98
2018-04-16T04:34:44.705Z,22.00
2018-04-16T04:35:16.295Z,22.01
2018-04-16T04:35:47.882Z,21.98
2018-04-16T04:36:19.467Z,21.97
2018-04-16T04:36:51.075Z,21.98
2018-04-16T04:37:22.689Z,22.00
2018-04-16T04:37:54.283Z,22.02
2018-04-16T04:38:25.895Z,22.05
2018-04-16T04:38:57.510Z,22.04
2018-04-16T04:39:29.113Z,22.05
2018-04-16T04:40:00.736Z,22.08
2018-04-16T04:40:32.343Z,22.10
2018-04-16T04:41:03.963Z,22.11
2018-04-16T04:41:35.553Z,22.13
2018-04-16T04:42:07.163Z,22.11
2018-04-16T04:42:38.767Z,22.12
2018-04-16T04:43:10.379Z,22.11
2018-04-16T04:43:41.966Z,22.12
2018-04-16T04:44:13.551Z,22.10
2018-04-16T04:44:45.192Z,22.11
2018-04-16T04:45:16.816Z,22.11
2018-04-16T04:45:48.394Z,22.11
2018-04-16T04:46:19.984Z,22.08
2018-04-16T04:46:51.569Z,22.11
2018-04-16T04:47:23.203Z,22.09
2018-04-16T04:47:54.806Z,22.11
2018-04-16T04:48:26.460Z,22.13
2018-04-16T04:48:58.072Z,22.12
2018-04-16T04:49:29.687Z,22.10
2018-04-16T04:50:01.284Z,22.10
2018-04-16T04:50:32.875Z,22.10
2018-04-16T04:51:04.449Z,22.09
2018-04-16T04:51:36.044Z,22.08
2018-04-16T04:52:07.626Z,22.07
2018-04-16T04:52:39.215Z,22.08
2018-04-16T04:53:10.803Z,22.06
2018-04-16T04:53:42.431Z,22.05
2018-04-16T04:54:14.047Z,22.05
2018-04-16T04:54:45.662Z,22.05
2018-04-16T04:55:17.254Z,22.06
2018-04-16T04:55:48.843Z,22.05
2018-04-16T04:56:20.430Z,22.07
2018-04-16T04:56:52.038Z,22.07
2018-04-16T04:57:23.654Z,22.06
2018-04-16T04:57:55.242Z,22.07
2018-04-16T04:58:26.848Z,22.13
2018-04-16T04:58:58.439Z,22.15
2018-04-16T04:59:30.071Z,22.13
2018-04-16T05:00:01.655Z,22.11
2018-04-16T05:00:33.262Z,22.09
2018-04-16T05:01:04.851Z,22.06
2018-04-16T05:01:36.462Z,22.01
2018-04-16T05:02:08.113Z,22.01
2018-04-16T05:02:39.714Z,21.97
2018-04-16T05:03:11.293Z,21.97
2018-04-16T05:03:42.899Z,21.98
2018-04-16T05:04:14.567Z,21.99
2018-04-16T05:04:46.154Z,22.00
2018-04-16T05:05:17.729Z,21.99
2018-04-16T05:05:49.314Z,21.99
2018-04-16T05:06:20.929Z,21.99
2018-04-16T05:06:52.549Z,21.99
2018-04-16T05:07:24.162Z,21.98
2018-04-16T05:07:55.749Z,21.99
2018-04-16T05:08:27.352Z,21.98
2018-04-16T05:08:58.967Z,22.03
2018-04-16T05:09:30.623Z,22.01
2018-04-16T05:10:02.211Z,22.02
2018-04-16T05:10:33.823Z,22.02
2018-04-16T05:11:05.425Z,22.03
2018-04-16T05:11:37.005Z,22.03
2018-04-16T05:12:08.648Z,22.03
2018-04-16T05:12:40.267Z,22.02
2018-04-16T05:13:11.849Z,22.00
2018-04-16T05:13:43.435Z,22.00
2018-04-16T05:14:15.043Z,21.99
2018-04-16T05:14:46.620Z,21.99
2018-04-16T05:15:18.216Z,22.01
2018-04-16T05:15:49.817Z,22.01
2018-04-16T05:16:21.427Z,22.01
2018-04-16T05:16:53.029Z,22.00
2018-04-16T05:17:24.688Z,22.00
2018-04-16T05:17:56.264Z,21.99
2018-04-16T05:18:27.851Z,21.97
2018-04-16T05:18:59.444Z,21.97
2018-04-16T05:19:31.050Z,21.97
2018-04-16T05:20:02.666Z,21.95
2018-04-16T05:20:34.307Z,21.94
2018-04-16T05:21:05.900Z,21.94
2018-04-16T05:21:37.490Z,21.95
2018-04-16T05:22:09.083Z,21.97
2018-04-16T05:22:40.667Z,22.00
2018-04-16T05:23:12.283Z,21.97
2018-04-16T05:23:43.880Z,21.98
2018-04-16T05:24:15.499Z,21.97
2018-04-16T05:24:47.100Z,21.98
2018-04-16T05:25:18.696Z,21.98
2018-04-16T05:25:50.359Z,21.97
2018-04-16T05:26:21.953Z,21.97
2018-04-16T05:26:53.546Z,21.97
2018-04-16T05:27:25.129Z,21.96
2018-04-16T05:27:56.756Z,22.00
2018-04-16T05:28:28.370Z,21.99
2018-04-16T05:28:59.967Z,21.99
2018-04-16T05:29:31.549Z,22.01
2018-04-16T05:30:03.165Z,22.00
2018-04-16T05:30:34.778Z,21.99
2018-04-16T05:31:06.423Z,22.00
2018-04-16T05:31:38.013Z,21.97
2018-04-16T05:32:09.622Z,22.00
2018-04-16T05:32:41.225Z,22.02
2018-04-16T05:33:12.839Z,22.02
2018-04-16T05:33:44.436Z,22.00
2018-04-16T05:34:16.022Z,21.99
2018-04-16T05:34:47.664Z,21.97
2018-04-16T05:35:19.251Z,21.99
2018-04-16T05:35:50.882Z,21.97
2018-04-16T05:36:22.502Z,21.98
2018-04-16T05:36:54.119Z,21.97
2018-04-16T05:37:25.711Z,21.96
2018-04-16T05:37:57.330Z,21.99
2018-04-16T05:38:28.918Z,22.01
2018-04-16T05:39:00.557Z,22.01
2018-04-16T05:39:32.170Z,22.01
2018-04-16T05:40:03.782Z,22.01
2018-04-16T05:40:35.401Z,22.01
2018-04-16T05:41:07.024Z,22.02
2018-04-16T05:41:38.638Z,22.03
2018-04-16T05:42:10.251Z,22.06
2018-04-16T05:42:41.853Z,22.08
2018-04-16T05:43:13.492Z,22.09
2018-04-16T05:43:45.098Z,22.10
2018-04-16T05:44:16.673Z,22.09
2018-04-16T05:44:48.272Z,22.09
2018-04-16T05:45:19.849Z,22.08
2018-04-16T05:45:51.444Z,22.07
2018-04-16T05:46:23.090Z,22.06
2018-04-16T05:46:54.683Z,22.05
2018-04-16T05:47:26.276Z,22.06
2018-04-16T05:47:57.876Z,22.06
2018-04-16T05:48:29.491Z,22.06
2018-04-16T05:49:01.106Z,22.07
2018-04-16T05:49:32.754Z,22.08
2018-04-16T05:50:04.375Z,22.07
2018-04-16T05:50:35.956Z,22.07
2018-04-16T05:51:07.598Z,22.07
2018-04-16T05:51:39.233Z,22.06
2018-04-16T05:52:10.818Z,22.05
2018-04-16T05:52:42.403Z,22.05
2018-04-16T05:53:13.991Z,22.06
2018-04-16T05:53:45.618Z,22.06
2018-04-16T05:54:17.206Z,22.07
2018-04-16T05:54:48.794Z,22.06
2018-04-16T05:55:20.409Z,22.09
2018-04-16T05:55:52.040Z,22.10
2018-04-16T05:56:23.666Z,22.10
2018-04-16T05:56:55.310Z,22.09
2018-04-16T05:57:26.946Z,22.08
2018-04-16T05:57:58.555Z,22.07
2018-04-16T05:58:30.139Z,22.08
2018-04-16T05:59:01.747Z,22.08
2018-04-16T05:59:33.335Z,22.08
2018-04-16T06:00:04.933Z,22.07
2018-04-16T06:00:36.550Z,22.08
2018-04-16T06:01:08.146Z,22.08
2018-04-16T06:01:39.788Z,22.09
2018-04-16T06:02:11.403Z,22.09
2018-04-16T06:02:43.018Z,22.09
2018-04-16T06:03:14.607Z,22.08
2018-04-16T06:03:46.191Z,22.09
2018-04-16T06:04:17.779Z,22.09
2018-04-16T06:04:49.366Z,22.03
2018-04-16T06:05:20.941Z,22.08
2018-04-16T06:05:52.550Z,22.08
2018-04-16T06:06:24.208Z,22.08
2018-04-16T06:06:55.804Z,22.08
2018-04-16T06:07:27.419Z,22.07
2018-04-16T06:07:59.030Z,22.08
2018-04-16T06:08:30.625Z,22.06
2018-04-16T06:09:02.299Z,22.07
2018-04-16T06:09:33.897Z,22.07
2018-04-16T06:10:05.510Z,22.08
2018-04-16T06:10:37.089Z,22.07
2018-04-16T06:11:08.677Z,22.07
2018-04-16T06:11:40.326Z,22.09
2018-04-16T06:12:11.932Z,22.08
2018-04-16T06:12:43.519Z,22.06
2018-04-16T06:13:15.127Z,22.05
2018-04-16T06:13:46.743Z,22.06
2018-04-16T06:14:18.334Z,22.06
2018-04-16T06:14:49.923Z,22.06
2018-04-16T06:15:21.502Z,22.07
2018-04-16T06:15:53.146Z,22.05
2018-04-16T06:16:24.746Z,22.03
2018-04-16T06:16:56.361Z,22.04
2018-04-16T06:17:27.951Z,22.02
2018-04-16T06:17:59.557Z,22.03
2018-04-16T06:18:31.171Z,22.03
2018-04-16T06:19:02.785Z,22.01
2018-04-16T06:19:34.349Z,22.01
2018-04-16T06:20:05.953Z,22.01
2018-04-16T06:20:37.544Z,22.01
2018-04-16T06:21:09.205Z,22.02
2018-04-16T06:21:40.794Z,22.01
2018-04-16T06:22:12.393Z,21.99
2018-04-16T06:22:44.011Z,22.00
2018-04-16T06:23:15.589Z,22.00
2018-04-16T06:23:47.172Z,21.99
2018-04-16T06:24:18.767Z,21.99
2018-04-16T06:24:50.357Z,21.98
2018-04-16T06:25:21.978Z,21.97
2018-04-16T06:25:53.618Z,21.89
2018-04-16T06:26:25.270Z,21.96
2018-04-16T06:26:56.873Z,21.97
2018-04-16T06:27:28.567Z,21.97
2018-04-16T06:28:00.101Z,21.99
2018-04-16T06:28:31.673Z,22.00
2018-04-16T06:29:03.279Z,22.00
2018-04-16T06:29:34.917Z,22.00
2018-04-16T06:30:06.550Z,21.98
2018-04-16T06:30:38.230Z,22.01
2018-04-16T06:31:10.535Z,22.00
2018-04-16T06:31:42.131Z,22.01
2018-04-16T06:32:13.715Z,22.01
2018-04-16T06:32:45.312Z,22.00
2018-04-16T06:33:16.939Z,22.00
2018-04-16T06:33:48.562Z,22.03
2018-04-16T06:34:20.189Z,22.03
2018-04-16T06:34:51.799Z,22.03
2018-04-16T06:35:23.423Z,22.02
2018-04-16T06:35:55.086Z,22.03
2018-04-16T06:36:26.675Z,22.02
2018-04-16T06:36:58.329Z,22.01
2018-04-16T06:37:29.904Z,22.00
2018-04-16T06:38:01.490Z,21.99
2018-04-16T06:38:33.099Z,22.00
2018-04-16T06:39:04.698Z,21.99
2018-04-16T06:39:36.345Z,21.99
2018-04-16T06:40:07.945Z,21.98
2018-04-16T06:40:39.558Z,21.97
2018-04-16T06:41:11.173Z,21.97
2018-04-16T06:41:42.773Z,21.98
2018-04-16T06:42:14.416Z,21.98
2018-04-16T06:42:46.030Z,22.02
2018-04-16T06:43:17.628Z,22.02
2018-04-16T06:43:49.242Z,22.03
2018-04-16T06:44:20.862Z,22.01
2018-04-16T06:44:52.451Z,22.00
2018-04-16T06:45:24.049Z,22.00
2018-04-16T06:45:55.636Z,22.00
2018-04-16T06:46:27.222Z,22.01
2018-04-16T06:46:58.822Z,22.02
2018-04-16T06:47:30.455Z,22.08
2018-04-16T06:48:02.083Z,22.18
2018-04-16T06:48:33.665Z,22.14
2018-04-16T06:49:05.251Z,22.09
2018-04-16T06:49:36.853Z,21.98
2018-04-16T06:50:08.474Z,21.88
2018-04-16T06:50:40.057Z,21.75
2018-04-16T06:51:12.095Z,21.65
2018-04-16T06:51:43.697Z,21.56
2018-04-16T06:52:15.298Z,21.47
2018-04-16T06:52:46.942Z,21.41
2018-04-16T06:53:18.541Z,21.37
2018-04-16T06:53:50.127Z,21.33
2018-04-16T06:54:21.716Z,21.30
2018-04-16T06:54:53.330Z,21.28
2018-04-16T06:55:24.919Z,21.26
2018-04-16T06:55:56.526Z,21.24
2018-04-16T06:56:28.116Z,21.24
2018-04-16T06:56:59.703Z,21.25
2018-04-16T06:57:31.289Z,21.27
2018-04-16T06:58:02.944Z,21.28
2018-04-16T06:58:34.564Z,21.31
2018-04-16T06:59:06.161Z,21.34
2018-04-16T06:59:37.777Z,21.36
2018-04-16T07:00:09.548Z,21.38
2018-04-16T07:00:41.212Z,21.50
2018-04-16T07:01:12.835Z,21.68
2018-04-16T07:01:44.437Z,21.84
2018-04-16T07:02:16.067Z,21.96
2018-04-16T07:02:47.717Z,22.04
2018-04-16T07:03:19.313Z,22.10
2018-04-16T07:03:50.920Z,22.16
2018-04-16T07:04:22.546Z,22.20
2018-04-16T07:04:54.219Z,22.23
2018-04-16T07:05:25.880Z,22.17
2018-04-16T07:05:57.492Z,22.17
2018-04-16T07:06:29.095Z,22.09
2018-04-16T07:07:00.707Z,22.07
2018-04-16T07:07:32.314Z,22.02
2018-04-16T07:08:03.935Z,21.98
2018-04-16T07:08:35.537Z,21.93
2018-04-16T07:09:07.140Z,21.91
2018-04-16T07:09:38.768Z,21.88
2018-04-16T07:10:10.456Z,21.85
2018-04-16T07:10:42.037Z,21.83
2018-04-16T07:11:13.632Z,21.82
2018-04-16T07:11:45.261Z,21.79
2018-04-16T07:12:16.873Z,21.78
2018-04-16T07:12:48.491Z,21.78
2018-04-16T07:13:20.091Z,21.79
2018-04-16T07:13:51.674Z,21.78
2018-04-16T07:14:23.268Z,21.77
2018-04-16T07:14:54.884Z,21.75
2018-04-16T07:15:26.514Z,21.76
2018-04-16T07:15:58.124Z,21.77
2018-04-16T07:16:29.740Z,21.77
2018-04-16T07:17:01.359Z,21.76
2018-04-16T07:17:33.014Z,21.75
2018-04-16T07:18:04.642Z,21.75
2018-04-16T07:18:36.262Z,21.74
2018-04-16T07:19:07.887Z,21.73
2018-04-16T07:19:39.552Z,21.71
2018-04-16T07:20:11.191Z,21.71
2018-04-16T07:20:42.806Z,21.70
2018-04-16T07:21:14.419Z,21.71